NCAR-RAP Real-Time Weather Data

Output produced by METARs form (17 October 2018  16:49 UTC)
found at http://weather.rap.ucar.edu/surface/
 
RJTY 171456Z 00000KT 10SM BKN036 BKN065 16/12 A3000 RMK AO2 SLP159 T01570115 402160147 58001 FZRANO $
RJTY 171356Z AUTO 36004KT 10SM OVC033 16/12 A3001 RMK AO2 SLP163 T01570115 FZRANO CHINO RWY18 $
RJTY 171256Z AUTO 00000KT 10SM BKN031 OVC070 16/11 A3002 RMK AO2 SLP167 T01630114 FZRANO CHINO RWY18 $
RJTY 171241Z AUTO 00000KT 10SM OVC030 16/11 A3002 RMK AO2 SLP167 FZRANO CHINO RWY18 $
RJTY 171156Z AUTO 35003KT 10SM BKN029 OVC070 16/11 A3001 RMK AO2 CIG 027V075 SLP164 T01630110 10192 20163 52016 FZRANO CHINO RWY18 $
RJTY 171126Z AUTO 08003KT 10SM FEW025 BKN075 17/11 A2999 RMK AO2 SLP157 FZRANO CHINO RWY18 $
RJTY 171056Z AUTO 00000KT 10SM BKN025 BKN080 17/11 A2999 RMK AO2 CIG 023V029 SLP157 T01700106 FZRANO CHINO RWY18 $
RJTY 170956Z AUTO 31005KT 10SM BKN033 BKN046 OVC075 18/11 A2998 RMK AO2 SLP154 T01760105 FZRANO $
RJTY 170856Z AUTO 32005KT 10SM OVC075 18/11 A2996 RMK AO2 SLP148 T01790107 52025 FZRANO $
RJTY 170756Z AUTO 32006KT 10SM OVC075 18/11 A2993 RMK AO2 SLP137 T01830106 FZRANO $
RJTY 170656Z AUTO 33005KT 10SM BKN070 19/10 A2991 RMK AO2 SLP130 T01890099 FZRANO $
RJTY 170556Z AUTO 34007KT 10SM OVC070 19/09 A2988 RMK AO2 SLP120 T01910090 10216 20182 53002 FZRANO $
RJTY 170456Z AUTO 34008KT 10SM OVC070 19/11 A2988 RMK AO2 SLP120 T01940107 FZRANO $
RJTY 170356Z AUTO 34012KT 10SM OVC070 20/10 A2987 RMK AO2 SLP116 T01970104 FZRANO $
RJTY 170256Z AUTO 06011KT 10SM FEW040 22/11 A2988 RMK AO2 SLP119 T02160113 58009 FZRANO $
RJTY 170227Z AUTO 07010KT 10SM CLR 21/12 A2988 RMK AO2 WSHFT 25 SLP119 FZRANO $
RJTY 170156Z AUTO 06009KT 10SM CLR 21/12 A2989 RMK AO2 SLP122 T02080117 FZRANO $
RJTY 170056Z AUTO 04009KT 10SM FEW065 19/12 A2990 RMK AO2 SLP126 T01930123 FZRANO CHINO RWY18 $
RJTY 162356Z AUTO 05006KT 10SM CLR 18/13 A2990 RMK AO2 SLP127 60000 T01820133 10183 20147 52010 FZRANO CHINO RWY18 $
RJTY 162256Z AUTO 00000KT 10SM FEW130 16/14 A2989 RMK AO2 SLP123 T01620137 FZRANO $
RJTY 162156Z AUTO 00000KT 10SM SCT040 BKN130 15/13 A2988 RMK AO2 SLP121 T01540132 FZRANO CHINO RWY18 $
RJTY 162056Z AUTO 29004KT 10SM FEW130 SCT170 15/13 A2987 RMK AO2 DZB1956E1958 SLP117 P0000 60000 T01470131 52007 FZRANO CHINO RWY18 $
RJTY 161956Z AUTO 00000KT 10SM CLR 15/13 A2987 RMK AO2 RAE12DZB12E15RAB17E35DZB35E36DZB48 SLP117 P0000 T01510131 FZRANO $
RJTY 161934Z AUTO 00000KT 10SM CLR 15/13 A2986 RMK AO2 RAE12DZB12E15RAB17 SLP113 FZRANO $
RJTY 161917Z AUTO 28003KT 10SM -RA FEW022 FEW070 SCT110 15/13 A2986 RMK AO2 RAE12DZB12E15RAB17 SLP113 FZRANO $
RJTY 161915Z AUTO 29004KT 10SM FEW022 FEW070 SCT110 15/13 A2986 RMK AO2 RAE12DZB12E15 SLP113 FZRANO $
RJTY 161856Z AUTO 27004KT 10SM -RA FEW075 SCT110 15/13 A2985 RMK AO2 DZE09DZB10E11RAB11E23RAB52 SLP110 P0000 T01540129 FZRANO $
RJTY 161852Z AUTO 27004KT 10SM -RA FEW070 SCT110 16/13 A2985 RMK AO2 DZE09DZB10E11RAB11E23RAB52 SLP109 FZRANO $
RJTY 161823Z AUTO 00000KT 10SM SCT110 16/13 A2984 RMK AO2 DZE09DZB10E11RAB11E23 SLP106 FZRANO $
RJTY 161810Z AUTO 00000KT 10SM -DZ SCT100 15/13 A2984 RMK AO2 DZE09DZB10 SLP106 FZRANO $
RJTY 161809Z AUTO 00000KT 10SM SCT100 15/13 A2984 RMK AO2 DZE09 SLP106 FZRANO $
RJTY 161756Z AUTO 29003KT 10SM -DZ FEW080 FEW100 16/13 A2985 RMK AO2 RAB42E55DZB55 SLP109 P0000 60000 T01550128 10167 20155 55012 FZRANO $
RJTY 161742Z AUTO 29005KT 10SM -RA FEW090 16/13 A2985 RMK AO2 RAB42 SLP109 FZRANO $
RJTY 161656Z AUTO 32004KT 10SM SCT110 BKN150 16/12 A2985 RMK AO2 SLP109 T01590123 FZRANO $
RJTY 161556Z AUTO 00000KT 10SM CLR 16/13 A2986 RMK AO2 SLP112 T01580127 FZRANO $
RJTY 161456Z AUTO 00000KT 10SM CLR 16/13 A2988 RMK AO2 SLP119 T01560129 402000131 58005 FZRANO $
RJTY 161356Z AUTO 32004KT 10SM SCT022 BKN140 17/13 A2989 RMK AO2 SLP123 T01670126 FZRANO $
RJTY 161341Z AUTO 31004KT 10SM BKN021 BKN032 BKN150 17/13 A2990 RMK AO2 CIG 021V029 BKN021 V SCT SLP126 FZRANO $
RJTY 161326Z AUTO 32004KT 10SM FEW020 SCT029 BKN150 BKN230 16/13 A2990 RMK AO2 SLP126 FZRANO $
RJTY 161256Z AUTO 00000KT 10SM BKN028 16/13 A2991 RMK AO2 CIG 028V230 BKN V FEW CIG 027 RWY18 SLP130 T01600129 FZRANO $
RJTY 161156Z AUTO 32004KT 10SM FEW160 17/13 A2990 RMK AO2 SLP127 T01650130 10194 20165 56007 FZRANO $
RJTY 161056Z AUTO 32003KT 10SM FEW032 SCT180 17/13 A2992 RMK AO2 SLP134 T01700129 FZRANO $
RJTY 160956Z AUTO 33006KT 10SM CLR 18/13 A2992 RMK AO2 SLP134 T01750132 FZRANO $
RJTY 160856Z AUTO 36007KT 10SM CLR 18/13 A2992 RMK AO2 SLP134 T01780125 55006 FZRANO $
RJTY 160756Z AUTO 05003KT 10SM CLR 18/12 A2994 RMK AO2 SLP141 T01830123 FZRANO $
RJTY 160656Z AUTO 05004KT 10SM CLR 19/11 A2993 RMK AO2 SLP137 T01900113 FZRANO $
RJTY 160556Z AUTO 05006KT 10SM CLR 19/12 A2994 RMK AO2 SLP140 T01930116 10200 20174 57013 FZRANO $
RJTY 160456Z AUTO 00000KT 10SM FEW055 BKN180 20/12 A2995 RMK AO2 SLP143 T01960116 FZRANO $
RJTY 160356Z AUTO 04006KT 10SM SCT055 SCT180 20/12 A2996 RMK AO2 SLP146 T01980121 FZRANO $
RJTY 160256Z AUTO 02005KT 10SM FEW027 FEW055 SCT180 20/13 A2998 RMK AO2 SLP153 T01960131 57022 FZRANO $
RJTY 160156Z AUTO 03005KT 10SM FEW190 19/13 A3000 RMK AO2 SLP160 T01940129 FZRANO $
RJTY 160056Z AUTO 01003KT 10SM CLR 19/13 A3002 RMK AO2 SLP167 T01870127 FZRANO $
RJTY 152356Z AUTO 36004KT 10SM FEW190 17/12 A3004 RMK AO2 SLP174 T01730124 10173 20131 58001 FZRANO $
RJTY 152256Z AUTO 00000KT 10SM CLR 16/12 A3006 RMK AO2 SLP181 T01570119 FZRANO $
RJTY 152156Z AUTO 00000KT 10SM CLR 14/12 A3006 RMK AO2 SLP182 T01380122 FZRANO CHINO RWY18 $
RJTY 152056Z AUTO 33003KT 10SM CLR 14/12 A3004 RMK AO2 SLP175 T01380120 55003 FZRANO $
RJTY 151956Z AUTO 00000KT 10SM CLR 14/13 A3005 RMK AO2 SLP178 T01430127 FZRANO $
RJTY 151856Z AUTO 00000KT 10SM CLR 15/13 A3005 RMK AO2 SLP178 T01500125 FZRANO $
RJTY 151756Z AUTO 32003KT 10SM SCT060 14/13 A3006 RMK AO2 SLP182 T01410125 10167 20140 55003 FZRANO $
RJTY 151656Z AUTO 30004KT 10SM SCT028 SCT038 16/14 A3007 RMK AO2 SLP184 T01560138 FZRANO $
RJTY 151641Z AUTO 32004KT 10SM BKN028 BKN036 15/14 A3006 RMK AO2 SLP181 FZRANO $
RJTY 151556Z AUTO 01004KT 10SM FEW020 SCT026 BKN034 15/14 A3006 RMK AO2 SLP181 T01520139 FZRANO $
RJTY 151456Z AUTO 02004KT 10SM OVC026 16/14 A3007 RMK AO2 OVC V BKN SLP184 T01560141 401910153 58007 FZRANO $
RJTY 151441Z AUTO 00000KT 10SM BKN026 BKN090 16/14 A3007 RMK AO2 CIG 026V090 BKN026 V SCT SLP184 FZRANO $
RJTY 151356Z AUTO 33004KT 10SM SCT026 SCT090 17/15 A3008 RMK AO2 SLP187 T01660146 FZRANO $
RJTY 151311Z AUTO 32003KT 10SM BKN024 BKN090 17/15 A3009 RMK AO2 SLP191 FZRANO $
RJTY 151256Z AUTO 00000KT 10SM SCT024 BKN090 17/15 A3009 RMK AO2 SLP191 T01670147 FZRANO $
RJTY 151156Z AUTO 28003KT 10SM CLR 17/15 A3009 RMK AO2 DZB1056E1058RAB37E47DZB47E50 SLP191 P0000 60000 T01660148 10189 20166 50002 FZRANO $
RJTY 151056Z AUTO 00000KT 10SM CLR 17/15 A3010 RMK AO2 DZE0956RAB05E33DZB33 SLP195 P0000 T01710149 FZRANO $
RJTY 151019Z AUTO 34003KT 10SM CLR 17/15 A3010 RMK AO2 DZE0956RAB05 SLP195 FZRANO CHINO RWY18 $
RJTY 151005Z AUTO 01004KT 10SM -RA FEW090 17/14 A3009 RMK AO2 DZE0956RAB05 SLP192 FZRANO $
RJTY 150957Z AUTO 36003KT 10SM FEW042 SCT090 17/14 A3009 RMK AO2 DZE56 SLP192 FZRANO $
RJTY 150956Z AUTO 36003KT 10SM -DZ FEW042 SCT090 17/14 A3010 RMK AO2 RAE01DZB01E06DZB46 SLP195 P0000 T01700144 FZRANO $
RJTY 150946Z AUTO 36005KT 10SM -DZ FEW042 17/14 A3009 RMK AO2 RAE01DZB01E06DZB46 SLP192 FZRANO $
RJTY 150906Z AUTO 01007KT 10SM OVC039 17/14 A3008 RMK AO2 RAE01DZB01E06 SLP188 FZRANO $
RJTY 150856Z AUTO 01007KT 10SM -RA FEW030 OVC039 17/15 A3008 RMK AO2 DZB38E45RAB45 SLP188 P0000 60000 T01740145 53001 FZRANO $
RJTY 150838Z AUTO 00000KT 10SM -DZ SCT030 BKN037 18/14 A3008 RMK AO2 DZB38 SLP188 FZRANO $
RJTY 150756Z AUTO 05004KT 10SM BKN030 OVC095 18/14 A3007 RMK AO2 DZB13E21 SLP184 P0000 T01810140 FZRANO $
RJTY 150721Z AUTO 00000KT 10SM BKN100 18/13 A3008 RMK AO2 DZB13E21 SLP188 FZRANO $
RJTY 150713Z AUTO 00000KT 10SM -DZ BKN100 18/13 A3008 RMK AO2 DZB13 SLP188 FZRANO $
RJTY 150656Z AUTO 00000KT 10SM BKN100 19/13 A3008 RMK AO2 SLP187 T01850127 FZRANO $
RJTY 150556Z AUTO 00000KT 10SM CLR 19/12 A3008 RMK AO2 SLP188 T01890124 10191 20173 56015 FZRANO $
RJTY 150456Z AUTO 00000KT 10SM CLR 19/13 A3008 RMK AO2 SLP188 T01890129 FZRANO $